This is the latest recevied weather packets stored in our database for station/object KC4JY. If no packets are shown the sender has not sent any weather packets the latest 10 day(s).
| Time | Temp. | Humidity | Pressure | Rain* | Wind** | Luminosity | Snow |
|---|---|---|---|---|---|---|---|
| 1777662060 | 15.56° C | 68% | 1014.3 hPa | 0 mm | - | - | - |
| 1777661170 | 15° C | 67% | 1014.4 hPa | 0 mm | - | - | - |
| 1777660244 | 15° C | 68% | 1014.7 hPa | 0 mm | - | - | - |
| 1777659341 | 15.56° C | 65% | 1014.8 hPa | 0 mm | - | - | - |
| 1777658424 | 15° C | 67% | 1014.9 hPa | 0 mm | - | - | - |
| 1777657521 | 13.89° C | 68% | 1015.3 hPa | 0 mm | - | - | - |
| 1777656676 | 14.44° C | 66% | 1014.9 hPa | 0 mm | - | - | - |
| 1777655759 | 14.44° C | 64% | 1015 hPa | 0 mm | - | - | - |
| 1777654841 | 13.89° C | 65% | 1015.1 hPa | 0 mm | - | - | - |
| 1777653954 | 13.33° C | 68% | 1015.3 hPa | 0 mm | - | - | - |
| 1777653022 | 12.78° C | 74% | 1015.5 hPa | 0 mm | - | - | - |
| 1777652123 | 12.78° C | 73% | 1015.6 hPa | 0 mm | - | - | - |
| 1777651211 | 12.22° C | 76% | 1015.7 hPa | 0 mm | - | - | - |
| 1777650308 | 11.67° C | 78% | 1015.7 hPa | 0.25 mm | - | - | - |
| 1777649411 | 11.11° C | 81% | 1015.9 hPa | 0.25 mm | - | - | - |
| 1777648505 | 10.56° C | 82% | 1016.1 hPa | 0.25 mm | - | - | - |
| 1777647605 | 10.56° C | 80% | 1016.4 hPa | 0.25 mm | - | - | - |
| 1777646764 | 10.56° C | 79% | 1016.9 hPa | 0 mm | - | - | - |
| 1777646702 | 10.56° C | 79% | 1016.9 hPa | 0 mm | - | - | - |
| 1777645881 | 11.11° C | 76% | 1016.9 hPa | 0 mm | - | - | - |
| 1777644966 | 11.67° C | 73% | 1016.2 hPa | 0 mm | - | - | - |
| 1777644043 | 12.22° C | 65% | 1015.7 hPa | 0 mm | - | - | - |
| 1777643141 | 12.78° C | 63% | 1015.2 hPa | 0 mm | - | - | - |
| 1777642217 | 12.22° C | 65% | 1015.2 hPa | 0 mm | - | - | - |
| 1777641317 | 12.22° C | 64% | 1015.4 hPa | 0 mm | - | - | - |
* Rain latest hour (hover to see other rain measurements)
** Current wind speed in m/s (hover to see current wind gust speed)